This is the latest recevied weather packets stored in our database for station/object DO7ZT-10. If no packets are shown the sender has not sent any weather packets the latest 10 day(s).
| Time | Temp. | Humidity | Pressure | Rain* | Wind** | Luminosity | Snow |
|---|---|---|---|---|---|---|---|
| 1777032210 | 7.78° C | 80% | 1019.3 hPa | - | - | - | - |
| 1777031310 | 7.22° C | 83% | 1019.4 hPa | - | - | - | - |
| 1777030410 | 7.22° C | 84% | 1019.5 hPa | - | - | - | - |
| 1777029510 | 7.22° C | 82% | 1019.6 hPa | - | - | - | - |
| 1777028610 | 7.22° C | 83% | 1019.6 hPa | - | - | - | - |
| 1777027710 | 6.67° C | 84% | 1019.5 hPa | - | - | - | - |
| 1777026810 | 6.67° C | 86% | 1019.6 hPa | - | - | - | - |
| 1777025910 | 6.11° C | 86% | 1019.6 hPa | - | - | - | - |
| 1777025009 | 6.67° C | 85% | 1019.7 hPa | - | - | - | - |
| 1777024109 | 5.56° C | 89% | 1019.7 hPa | - | - | - | - |
| 1777023209 | 5.56° C | 89% | 1019.7 hPa | - | - | - | - |
| 1777022309 | 6.11° C | 88% | 1019.7 hPa | - | - | - | - |
| 1777021409 | 5.56° C | 89% | 1019.6 hPa | - | - | - | - |
| 1777020509 | 5.56° C | 89% | 1019.5 hPa | - | - | - | - |
| 1777019609 | 6.11° C | 87% | 1019.4 hPa | - | - | - | - |
| 1777018709 | 6.11° C | 87% | 1019.4 hPa | - | - | - | - |
| 1777017809 | 6.11° C | 85% | 1019.3 hPa | - | - | - | - |
| 1777016909 | 6.11° C | 83% | 1019.3 hPa | - | - | - | - |
| 1777016009 | 6.67° C | 85% | 1019.1 hPa | - | - | - | - |
| 1777015109 | 6.67° C | 86% | 1018.9 hPa | - | - | - | - |
| 1777014209 | 6.11° C | 88% | 1019 hPa | - | - | - | - |
| 1777013309 | 6.11° C | 87% | 1019 hPa | - | - | - | - |
| 1777012408 | 6.11° C | 87% | 1019 hPa | - | - | - | - |
| 1777011508 | 6.67° C | 88% | 1019 hPa | - | - | - | - |
| 1777010608 | 6.67° C | 88% | 1018.9 hPa | - | - | - | - |
* Rain since midnight (hover to see other rain measurements)
** Current wind speed in m/s (hover to see current wind gust speed)